createdAt,value
2022-08-29T00:00:28.181Z,101888.06
2022-08-29T00:02:57.215Z,101882.13
2022-08-29T00:05:29.045Z,101884.19
2022-08-29T00:07:56.827Z,101887.84
2022-08-29T00:10:23.405Z,101885.22
2022-08-29T00:12:50.270Z,101887.06
2022-08-29T00:15:17.760Z,101869.94
2022-08-29T00:17:44.780Z,101875.97
2022-08-29T00:20:16.776Z,101882.97
2022-08-29T00:22:43.558Z,101881.41
2022-08-29T00:25:13.021Z,101871.16
2022-08-29T00:27:39.850Z,101875.72
2022-08-29T00:30:09.555Z,101875.72
2022-08-29T00:32:36.422Z,101877.44
2022-08-29T00:35:07.472Z,101875.72
2022-08-29T00:37:34.155Z,101879.19
2022-08-29T00:40:00.787Z,101874.81
2022-08-29T00:42:28.046Z,101872.34
2022-08-29T00:44:54.901Z,101876.66
2022-08-29T00:47:26.433Z,101877.69
2022-08-29T00:49:55.790Z,101878.50
2022-08-29T00:52:33.915Z,101882.31
2022-08-29T00:55:02.801Z,101879.63
2022-08-29T00:57:32.652Z,101877.19
2022-08-29T01:00:00.338Z,101878.13
2022-08-29T01:02:28.544Z,101875.56
2022-08-29T01:04:55.397Z,101873.88
2022-08-29T01:07:22.260Z,101876.56
2022-08-29T01:09:50.182Z,101874.00
2022-08-29T01:12:16.957Z,101883.69
2022-08-29T01:14:51.078Z,101884.63
2022-08-29T01:17:33.986Z,101887.41
2022-08-29T01:20:25.237Z,101882.19
2022-08-29T01:23:09.625Z,101883.88
2022-08-29T01:25:39.667Z,101882.34
2022-08-29T01:28:25.616Z,101883.25
2022-08-29T01:30:58.127Z,101882.44
2022-08-29T01:33:24.691Z,101883.38
2022-08-29T01:35:51.420Z,101887.81
2022-08-29T01:38:27.863Z,101889.53
2022-08-29T01:40:59.054Z,101895.94
2022-08-29T01:43:27.146Z,101894.16
2022-08-29T01:45:54.066Z,101894.94
2022-08-29T01:48:21.570Z,101896.94
2022-08-29T01:50:48.137Z,101895.28
2022-08-29T01:53:15.502Z,101895.28
2022-08-29T01:55:42.927Z,101899.47
2022-08-29T01:58:09.655Z,101896.00
2022-08-29T02:00:36.568Z,101897.97
2022-08-29T02:03:04.035Z,101893.78
2022-08-29T02:05:31.511Z,101901.75
2022-08-29T02:07:58.287Z,101904.44
2022-08-29T02:10:25.559Z,101897.59
2022-08-29T02:12:53.543Z,101902.16
2022-08-29T02:15:21.422Z,101910.84
2022-08-29T02:17:48.402Z,101902.84
2022-08-29T02:20:18.411Z,101907.22
2022-08-29T02:22:44.993Z,101911.50
2022-08-29T02:25:30.742Z,101910.59
2022-08-29T02:27:58.294Z,101907.97
2022-08-29T02:30:25.754Z,101921.72
2022-08-29T02:32:52.953Z,101919.28
2022-08-29T02:35:19.925Z,101923.78
2022-08-29T02:37:47.600Z,101915.16
2022-08-29T02:40:14.296Z,101919.47
2022-08-29T02:42:41.008Z,101914.41
2022-08-29T02:45:08.147Z,101916.84
2022-08-29T02:47:36.911Z,101913.53
2022-08-29T02:50:09.268Z,101912.75
2022-08-29T02:52:42.593Z,101911.91
2022-08-29T02:55:15.310Z,101921.66
2022-08-29T02:57:43.014Z,101925.97
2022-08-29T03:00:14.693Z,101918.97
2022-08-29T03:02:41.299Z,101924.28
2022-08-29T03:05:08.526Z,101920.25
2022-08-29T03:07:35.330Z,101916.13
2022-08-29T03:10:02.162Z,101923.06
2022-08-29T03:12:28.873Z,101917.63
2022-08-29T03:14:59.050Z,101914.41
2022-08-29T03:17:25.891Z,101905.72
2022-08-29T03:19:52.501Z,101908.34
2022-08-29T03:22:19.235Z,101904.09
2022-08-29T03:24:46.046Z,101908.72
2022-08-29T03:27:13.129Z,101901.72
2022-08-29T03:29:39.723Z,101899.09
2022-08-29T03:32:06.357Z,101890.34
2022-08-29T03:34:33.130Z,101907.16
2022-08-29T03:37:00.503Z,101905.69
2022-08-29T03:39:27.229Z,101909.09
2022-08-29T03:41:53.823Z,101897.78
2022-08-29T03:44:21.660Z,101904.81
2022-08-29T03:46:48.724Z,101899.78
2022-08-29T03:49:18.265Z,101898.28
2022-08-29T03:51:44.833Z,101893.03
2022-08-29T03:54:11.703Z,101891.44
2022-08-29T03:56:38.269Z,101894.19
2022-08-29T03:59:04.943Z,101893.44
2022-08-29T04:01:31.928Z,101890.91
2022-08-29T04:03:58.779Z,101896.03
2022-08-29T04:06:28.419Z,101884.75
2022-08-29T04:08:56.164Z,101885.75
2022-08-29T04:11:24.407Z,101891.72
2022-08-29T04:13:53.037Z,101882.97
2022-08-29T04:16:30.375Z,101886.50
2022-08-29T04:18:57.891Z,101894.44
2022-08-29T04:21:25.866Z,101900.81
2022-08-29T04:23:54.140Z,101904.19
2022-08-29T04:26:37.440Z,101900.97
2022-08-29T04:29:06.962Z,101897.41
2022-08-29T04:31:34.058Z,101892.97
2022-08-29T04:34:00.844Z,101899.09
2022-08-29T04:36:28.827Z,101891.22
2022-08-29T04:38:55.678Z,101906.16
2022-08-29T04:41:22.495Z,101900.88
2022-08-29T04:43:49.097Z,101898.31
2022-08-29T04:46:23.879Z,101905.19
2022-08-29T04:48:52.229Z,101909.31
2022-08-29T04:51:18.979Z,101914.63
2022-08-29T04:53:45.603Z,101914.66
2022-08-29T04:56:13.615Z,101911.25
2022-08-29T04:58:44.135Z,101913.09
2022-08-29T05:01:19.482Z,101908.66
2022-08-29T05:03:46.255Z,101912.16
2022-08-29T05:06:15.337Z,101908.72
2022-08-29T05:08:43.145Z,101908.88
2022-08-29T05:11:12.768Z,101905.78
2022-08-29T05:13:39.344Z,101912.19
2022-08-29T05:16:12.294Z,101917.22
2022-08-29T05:18:39.911Z,101914.53
2022-08-29T05:21:06.967Z,101923.38
2022-08-29T05:23:34.861Z,101927.75
2022-08-29T05:26:04.213Z,101927.66
2022-08-29T05:28:32.796Z,101931.97
2022-08-29T05:31:00.238Z,101935.22
2022-08-29T05:33:27.550Z,101946.34
2022-08-29T05:35:54.265Z,101936.47
2022-08-29T05:38:20.817Z,101932.84
2022-08-29T05:40:47.430Z,101931.69
2022-08-29T05:43:14.229Z,101931.69
2022-08-29T05:45:41.827Z,101927.38
2022-08-29T05:48:09.630Z,101929.75
2022-08-29T05:50:43.255Z,101927.19
2022-08-29T05:53:13.113Z,101912.78
2022-08-29T05:55:43.714Z,101924.56
2022-08-29T05:58:11.867Z,101925.00
2022-08-29T06:00:43.817Z,101928.91
2022-08-29T06:03:11.451Z,101933.53
2022-08-29T06:05:39.140Z,101947.13
2022-08-29T06:08:06.141Z,101956.59
2022-08-29T06:10:33.987Z,101950.84
2022-08-29T06:13:00.591Z,101947.56
2022-08-29T06:15:28.678Z,101947.13
2022-08-29T06:17:56.060Z,101944.72
2022-08-29T06:20:23.909Z,101942.34
2022-08-29T06:22:50.528Z,101948.66
2022-08-29T06:25:37.951Z,101952.44
2022-08-29T06:28:04.110Z,101946.16
2022-08-29T06:30:33.093Z,101956.88
2022-08-29T06:33:00.602Z,101954.84
2022-08-29T06:35:27.198Z,101955.44
2022-08-29T06:37:53.748Z,101958.56
2022-08-29T06:40:20.401Z,101958.28
2022-08-29T06:42:47.073Z,101958.03
2022-08-29T06:45:13.762Z,101962.34
2022-08-29T06:47:40.333Z,101962.41
2022-08-29T06:50:07.413Z,101959.59
2022-08-29T06:52:34.055Z,101967.31
2022-08-29T06:55:02.835Z,101967.41
2022-08-29T06:57:29.448Z,101971.81
2022-08-29T06:59:56.038Z,101972.78
2022-08-29T07:02:22.852Z,101960.66
2022-08-29T07:04:49.961Z,101971.03
2022-08-29T07:07:16.581Z,101964.84
2022-08-29T07:09:44.310Z,101966.47
2022-08-29T07:12:11.044Z,101963.63
2022-08-29T07:14:37.794Z,101967.94
2022-08-29T07:17:04.475Z,101968.75
2022-08-29T07:19:31.036Z,101962.47
2022-08-29T07:21:59.038Z,101962.25
2022-08-29T07:24:26.499Z,101955.72
2022-08-29T07:26:53.178Z,101961.81
2022-08-29T07:29:21.485Z,101962.81
2022-08-29T07:31:49.187Z,101971.22
2022-08-29T07:34:20.202Z,101971.50
2022-08-29T07:36:49.519Z,101978.19
2022-08-29T07:39:19.086Z,101978.41
2022-08-29T07:41:46.368Z,101975.13
2022-08-29T07:44:14.411Z,101977.13
2022-08-29T07:46:42.375Z,101976.75
2022-08-29T07:49:09.794Z,101969.50
2022-08-29T07:51:36.549Z,101973.34
2022-08-29T07:54:04.524Z,101965.78
2022-08-29T07:56:37.797Z,101967.47
2022-08-29T07:59:06.108Z,101967.84
2022-08-29T08:01:33.153Z,101965.28
2022-08-29T08:03:59.770Z,101967.75
2022-08-29T08:06:27.685Z,101965.09
2022-08-29T08:08:55.660Z,101975.19
2022-08-29T08:11:23.528Z,101977.50
2022-08-29T08:13:52.162Z,101979.88
2022-08-29T08:16:21.633Z,101980.22
2022-08-29T08:18:48.920Z,101980.50
2022-08-29T08:21:15.665Z,101982.09
2022-08-29T08:23:42.553Z,101985.03
2022-08-29T08:26:10.805Z,101990.78
2022-08-29T08:28:37.857Z,101988.78
2022-08-29T08:31:06.984Z,101990.78
2022-08-29T08:33:35.411Z,101993.25
2022-08-29T08:36:04.071Z,101995.72
2022-08-29T08:38:31.680Z,101987.22
2022-08-29T08:41:07.114Z,101989.09
2022-08-29T08:43:50.441Z,101990.69
2022-08-29T08:46:18.808Z,101987.94
2022-08-29T08:48:49.081Z,101996.72
2022-08-29T08:51:23.677Z,101988.59
2022-08-29T08:53:54.504Z,101995.56
2022-08-29T08:56:48.017Z,101994.50
2022-08-29T08:59:39.528Z,101995.59
2022-08-29T09:02:37.109Z,101991.19
2022-08-29T09:05:48.629Z,101990.94
2022-08-29T09:08:16.136Z,101998.38
2022-08-29T09:11:03.316Z,101987.19
2022-08-29T09:13:36.071Z,101990.03
2022-08-29T09:16:09.560Z,101982.84
2022-08-29T09:18:43.549Z,101992.63
2022-08-29T09:21:40.749Z,101987.22
2022-08-29T09:24:13.704Z,101987.97
2022-08-29T09:26:40.925Z,101981.44
2022-08-29T09:29:10.100Z,101987.06
2022-08-29T09:31:37.678Z,101983.59
2022-08-29T09:34:12.266Z,101984.38
2022-08-29T09:36:47.816Z,101994.44
2022-08-29T09:39:33.438Z,101989.16
2022-08-29T09:42:12.044Z,101989.03
2022-08-29T09:44:40.994Z,101991.13
2022-08-29T09:47:34.054Z,101983.44
2022-08-29T09:50:09.492Z,101980.81
2022-08-29T09:52:40.752Z,101981.03
2022-08-29T09:55:33.525Z,101976.97
2022-08-29T09:58:07.063Z,101974.81
2022-08-29T10:00:38.172Z,101977.94
2022-08-29T10:03:10.811Z,101969.34
2022-08-29T10:05:44.888Z,101969.06
2022-08-29T10:08:25.182Z,101969.16
2022-08-29T10:10:55.727Z,101965.97
2022-08-29T10:13:38.245Z,101964.63
2022-08-29T10:16:23.573Z,101964.28
2022-08-29T10:18:59.309Z,101962.63
2022-08-29T10:21:48.147Z,101957.25
2022-08-29T10:24:42.892Z,101956.03
2022-08-29T10:27:09.664Z,101961.88
2022-08-29T10:29:39.250Z,101956.59
2022-08-29T10:32:29.243Z,101960.63
2022-08-29T10:35:06.192Z,101951.88
2022-08-29T10:37:43.126Z,101953.34
2022-08-29T10:40:31.031Z,101945.88
2022-08-29T10:43:23.630Z,101947.34
2022-08-29T10:46:11.843Z,101943.25
2022-08-29T10:48:58.756Z,101939.53
2022-08-29T10:51:41.009Z,101939.88
2022-08-29T10:54:31.608Z,101944.44
2022-08-29T10:57:01.798Z,101941.72
2022-08-29T10:59:54.631Z,101941.84
2022-08-29T11:02:32.575Z,101940.22
2022-08-29T11:05:02.782Z,101928.16
2022-08-29T11:07:35.021Z,101924.66
2022-08-29T11:10:16.116Z,101908.66
2022-08-29T11:13:09.893Z,101917.97
2022-08-29T11:15:45.234Z,101905.06
2022-08-29T11:18:30.115Z,101909.03
2022-08-29T11:21:03.414Z,101902.88
2022-08-29T11:23:38.809Z,101901.56
2022-08-29T11:26:31.938Z,101911.69
2022-08-29T11:29:04.937Z,101894.06
2022-08-29T11:31:44.036Z,101892.09
2022-08-29T11:34:55.616Z,101886.09
2022-08-29T11:37:31.446Z,101890.63
2022-08-29T11:40:01.070Z,101889.63
2022-08-29T11:45:35.612Z,101881.38
2022-08-29T11:48:44.579Z,101884.34
2022-08-29T11:51:37.673Z,101885.63
2022-08-29T11:54:28.890Z,101875.34
2022-08-29T11:57:01.490Z,101881.25
2022-08-29T11:59:57.211Z,101878.72
2022-08-29T12:02:32.562Z,101864.56
2022-08-29T12:05:14.490Z,101869.44
2022-08-29T12:08:19.939Z,101867.97
2022-08-29T12:10:53.322Z,101871.28
2022-08-29T12:13:44.827Z,101868.66
2022-08-29T12:16:17.298Z,101867.47
2022-08-29T12:18:45.716Z,101861.47
2022-08-29T12:21:32.392Z,101863.56
2022-08-29T12:23:59.315Z,101860.22
2022-08-29T12:26:45.002Z,101851.84
2022-08-29T12:29:22.119Z,101850.28
2022-08-29T12:32:28.546Z,101848.47
2022-08-29T12:35:07.376Z,101857.03
2022-08-29T12:38:03.652Z,101851.75
2022-08-29T12:40:52.592Z,101840.97
2022-08-29T12:43:28.423Z,101839.06
2022-08-29T12:45:56.065Z,101833.13
2022-08-29T12:48:38.007Z,101835.44
2022-08-29T12:51:05.163Z,101837.34
2022-08-29T12:53:35.043Z,101832.47
2022-08-29T12:56:13.480Z,101827.91
2022-08-29T12:58:42.073Z,101828.53
2022-08-29T13:01:31.978Z,101816.13
2022-08-29T13:04:32.145Z,101812.31
2022-08-29T13:07:05.257Z,101808.66
2022-08-29T13:09:34.539Z,101803.13
2022-08-29T13:12:22.212Z,101798.25
2022-08-29T13:14:55.453Z,101805.63
2022-08-29T13:17:45.256Z,101809.50
2022-08-29T13:20:43.330Z,101817.13
2022-08-29T13:23:13.718Z,101807.63
2022-08-29T13:26:01.092Z,101802.22
2022-08-29T13:28:35.764Z,101798.84
2022-08-29T13:31:04.756Z,101794.38
2022-08-29T13:33:35.294Z,101801.13
2022-08-29T13:36:28.739Z,101790.31
2022-08-29T13:39:25.372Z,101789.34
2022-08-29T13:42:01.777Z,101790.53
2022-08-29T13:44:28.293Z,101788.63
2022-08-29T13:46:59.440Z,101792.25
2022-08-29T13:49:29.776Z,101785.00
2022-08-29T13:51:56.761Z,101781.84
2022-08-29T13:54:25.139Z,101783.66
2022-08-29T13:56:57.781Z,101777.47
2022-08-29T13:59:27.552Z,101777.31
2022-08-29T14:02:11.326Z,101767.94
2022-08-29T14:04:41.203Z,101764.97
2022-08-29T14:07:17.798Z,101754.59
2022-08-29T14:09:46.472Z,101756.38
2022-08-29T14:12:14.777Z,101750.13
2022-08-29T14:14:43.245Z,101752.78
2022-08-29T14:17:11.663Z,101752.13
2022-08-29T14:19:45.323Z,101753.34
2022-08-29T14:22:11.956Z,101749.22
2022-08-29T14:24:41.285Z,101738.91
2022-08-29T14:27:08.789Z,101744.78
2022-08-29T14:29:35.799Z,101736.16
2022-08-29T14:32:03.540Z,101734.03
2022-08-29T14:34:32.471Z,101741.50
2022-08-29T14:37:01.200Z,101743.66
2022-08-29T14:39:28.492Z,101745.78
2022-08-29T14:41:55.650Z,101743.97
2022-08-29T14:44:22.416Z,101741.59
2022-08-29T14:46:51.918Z,101738.94
2022-08-29T14:49:19.277Z,101728.00
2022-08-29T14:51:45.853Z,101728.94
2022-08-29T14:54:13.044Z,101726.25
2022-08-29T14:56:48.835Z,101727.59
2022-08-29T14:59:17.654Z,101729.56
2022-08-29T15:01:44.360Z,101721.56
2022-08-29T15:04:11.267Z,101725.34
2022-08-29T15:06:39.948Z,101721.13
2022-08-29T15:09:06.696Z,101717.78
2022-08-29T15:11:33.369Z,101719.66
2022-08-29T15:14:04.500Z,101710.69
2022-08-29T15:16:32.791Z,101711.81
2022-08-29T15:21:46.050Z,101703.94
2022-08-29T15:24:12.660Z,101702.75
2022-08-29T15:26:39.307Z,101693.06
2022-08-29T15:29:08.602Z,101698.16
2022-08-29T15:31:35.242Z,101695.88
2022-08-29T15:34:01.959Z,101694.16
2022-08-29T15:36:28.646Z,101690.09
2022-08-29T15:38:55.233Z,101685.78
2022-08-29T15:41:21.975Z,101682.03
2022-08-29T15:43:48.779Z,101674.97
2022-08-29T15:46:15.519Z,101666.78
2022-08-29T15:48:44.642Z,101669.22
2022-08-29T15:51:11.347Z,101679.78
2022-08-29T15:53:38.138Z,101672.19
2022-08-29T15:56:04.905Z,101665.34
2022-08-29T15:58:31.504Z,101672.31
2022-08-29T16:00:58.736Z,101667.00
2022-08-29T16:03:31.902Z,101668.94
2022-08-29T16:05:59.511Z,101671.47
2022-08-29T16:08:29.785Z,101668.69
2022-08-29T16:10:58.000Z,101663.41
2022-08-29T16:13:25.123Z,101652.78
2022-08-29T16:15:52.057Z,101649.31
2022-08-29T16:18:18.908Z,101656.53
2022-08-29T16:20:53.541Z,101653.28
2022-08-29T16:23:23.435Z,101647.50
2022-08-29T16:25:49.991Z,101652.09
2022-08-29T16:28:16.747Z,101651.69
2022-08-29T16:30:44.479Z,101654.97
2022-08-29T16:33:13.207Z,101655.44
2022-08-29T16:35:39.916Z,101659.50
2022-08-29T16:38:06.534Z,101653.97
2022-08-29T16:40:33.243Z,101660.75
2022-08-29T16:43:01.852Z,101662.88
2022-08-29T16:45:28.610Z,101657.97
2022-08-29T16:47:57.578Z,101659.75
2022-08-29T16:50:25.870Z,101664.66
2022-08-29T16:52:52.523Z,101657.81
2022-08-29T16:55:19.804Z,101653.84
2022-08-29T16:58:06.391Z,101663.13
2022-08-29T17:00:33.203Z,101662.56
2022-08-29T17:03:00.083Z,101655.94
2022-08-29T17:05:27.289Z,101657.88
2022-08-29T17:07:53.907Z,101658.09
2022-08-29T17:10:20.452Z,101653.19
2022-08-29T17:12:47.024Z,101655.72
2022-08-29T17:15:13.600Z,101654.03
2022-08-29T17:17:40.515Z,101647.75
2022-08-29T17:20:08.018Z,101649.22
2022-08-29T17:22:34.767Z,101648.25
2022-08-29T17:25:02.005Z,101649.94
2022-08-29T17:27:30.199Z,101653.31
2022-08-29T17:29:57.101Z,101651.63
2022-08-29T17:32:23.669Z,101657.75
2022-08-29T17:34:50.460Z,101660.06
2022-08-29T17:37:17.917Z,101656.91
2022-08-29T17:39:48.092Z,101657.88
2022-08-29T17:42:14.604Z,101658.84
2022-08-29T17:44:42.048Z,101661.72
2022-08-29T17:47:08.583Z,101663.53
2022-08-29T17:49:35.154Z,101659.31
2022-08-29T17:52:02.373Z,101655.31
2022-08-29T17:54:29.036Z,101653.03
2022-08-29T17:57:00.305Z,101660.63
2022-08-29T17:59:30.497Z,101666.13
2022-08-29T18:01:57.842Z,101659.50
2022-08-29T18:04:26.840Z,101661.44
2022-08-29T18:06:55.250Z,101660.84
2022-08-29T18:09:23.566Z,101667.66
2022-08-29T18:11:52.954Z,101670.56
2022-08-29T18:14:22.702Z,101663.81
2022-08-29T18:16:50.205Z,101665.75
2022-08-29T18:19:17.020Z,101667.91
2022-08-29T18:21:44.461Z,101662.84
2022-08-29T18:24:13.888Z,101668.16
2022-08-29T18:26:43.813Z,101670.28
2022-08-29T18:29:10.813Z,101667.38
2022-08-29T18:31:37.488Z,101670.94
2022-08-29T18:34:05.738Z,101670.22
2022-08-29T18:36:34.490Z,101665.78
2022-08-29T18:39:03.088Z,101670.94
2022-08-29T18:41:30.082Z,101666.34
2022-08-29T18:43:57.125Z,101672.34
2022-08-29T18:46:23.731Z,101667.50
2022-08-29T18:48:50.868Z,101668.56
2022-08-29T18:51:18.194Z,101663.72
2022-08-29T18:53:45.213Z,101668.28
2022-08-29T18:56:12.136Z,101663.09
2022-08-29T18:58:41.284Z,101662.13
2022-08-29T19:01:27.743Z,101665.03
2022-08-29T19:04:00.120Z,101665.25
2022-08-29T19:06:27.422Z,101671.94
2022-08-29T19:08:56.611Z,101680.31
2022-08-29T19:11:23.673Z,101687.63
2022-08-29T19:13:52.183Z,101677.16
2022-08-29T19:16:21.701Z,101682.44
2022-08-29T19:18:49.157Z,101687.31
2022-08-29T19:21:15.792Z,101682.38
2022-08-29T19:23:45.605Z,101687.88
2022-08-29T19:26:19.404Z,101690.28
2022-08-29T19:28:47.090Z,101688.84
2022-08-29T19:31:16.376Z,101688.19
2022-08-29T19:33:44.723Z,101682.72
2022-08-29T19:36:12.040Z,101689.78
2022-08-29T19:38:41.305Z,101687.34
2022-08-29T19:41:08.511Z,101692.16
2022-08-29T19:43:36.693Z,101689.59
2022-08-29T19:46:09.587Z,101688.97
2022-08-29T19:48:36.190Z,101695.22
2022-08-29T19:51:09.614Z,101696.19
2022-08-29T19:53:41.514Z,101694.94
2022-08-29T19:56:09.208Z,101695.84
2022-08-29T19:58:37.251Z,101698.28
2022-08-29T20:01:06.987Z,101694.16
2022-08-29T20:03:36.994Z,101699.69
2022-08-29T20:06:07.574Z,101690.91
2022-08-29T20:08:36.639Z,101694.56
2022-08-29T20:11:03.672Z,101700.06
2022-08-29T20:13:35.799Z,101686.34
2022-08-29T20:16:03.399Z,101693.72
2022-08-29T20:18:30.016Z,101695.53
2022-08-29T20:20:56.619Z,101691.31
2022-08-29T20:23:23.269Z,101688.91
2022-08-29T20:25:49.853Z,101695.44
2022-08-29T20:28:16.608Z,101701.56
2022-08-29T20:30:44.210Z,101694.50
2022-08-29T20:33:13.937Z,101690.59
2022-08-29T20:35:59.027Z,101697.78
2022-08-29T20:38:25.614Z,101689.84
2022-08-29T20:40:52.262Z,101693.53
2022-08-29T20:43:19.799Z,101694.72
2022-08-29T20:45:46.927Z,101700.19
2022-08-29T20:48:14.283Z,101704.06
2022-08-29T20:50:41.445Z,101701.66
2022-08-29T20:53:08.795Z,101706.94
2022-08-29T20:55:40.541Z,101703.75
2022-08-29T20:58:07.107Z,101701.44
2022-08-29T21:00:33.908Z,101713.78
2022-08-29T21:03:19.030Z,101707.25
2022-08-29T21:05:46.014Z,101705.19
2022-08-29T21:08:21.467Z,101710.59
2022-08-29T21:10:49.785Z,101710.69
2022-08-29T21:13:17.614Z,101709.97
2022-08-29T21:15:45.483Z,101711.31
2022-08-29T21:18:16.144Z,101713.88
2022-08-29T21:20:54.473Z,101713.31
2022-08-29T21:23:23.348Z,101707.22
2022-08-29T21:25:55.298Z,101704.69
2022-08-29T21:28:22.126Z,101712.66
2022-08-29T21:30:49.361Z,101710.88
2022-08-29T21:33:16.395Z,101711.00
2022-08-29T21:35:43.387Z,101707.59
2022-08-29T21:38:11.247Z,101710.41
2022-08-29T21:40:44.114Z,101714.09
2022-08-29T21:43:17.779Z,101704.63
2022-08-29T21:45:44.461Z,101705.47
2022-08-29T21:48:11.187Z,101700.06
2022-08-29T21:50:38.544Z,101698.56
2022-08-29T21:53:05.770Z,101699.53
2022-08-29T21:55:33.045Z,101692.56
2022-08-29T21:58:00.993Z,101697.09
2022-08-29T22:00:34.214Z,101698.06
2022-08-29T22:03:03.262Z,101694.59
2022-08-29T22:05:32.240Z,101700.16
2022-08-29T22:08:00.980Z,101696.78
2022-08-29T22:10:31.130Z,101700.44
2022-08-29T22:12:58.550Z,101704.22
2022-08-29T22:15:44.363Z,101705.06
2022-08-29T22:18:14.867Z,101714.88
2022-08-29T22:20:42.952Z,101719.94
2022-08-29T22:23:10.975Z,101733.13
2022-08-29T22:25:37.673Z,101727.44
2022-08-29T22:28:04.936Z,101723.13
2022-08-29T22:30:32.682Z,101734.81
2022-08-29T22:33:01.171Z,101725.88
2022-08-29T22:35:28.238Z,101738.09
2022-08-29T22:37:55.159Z,101737.03
2022-08-29T22:40:21.933Z,101735.34
2022-08-29T22:42:48.743Z,101739.13
2022-08-29T22:45:16.371Z,101740.06
2022-08-29T22:47:46.735Z,101738.50
2022-08-29T22:50:18.108Z,101733.50
2022-08-29T22:52:45.319Z,101735.59
2022-08-29T22:55:15.638Z,101743.31
2022-08-29T22:57:45.210Z,101742.34
2022-08-29T23:00:16.880Z,101751.31
2022-08-29T23:02:43.653Z,101748.56
2022-08-29T23:05:10.766Z,101744.88
2022-08-29T23:07:37.699Z,101745.22
2022-08-29T23:10:06.901Z,101748.75
2022-08-29T23:12:36.397Z,101746.44
2022-08-29T23:15:11.174Z,101747.38
2022-08-29T23:17:37.815Z,101737.75
2022-08-29T23:20:06.625Z,101737.97
2022-08-29T23:22:33.513Z,101738.34
2022-08-29T23:25:00.442Z,101733.94
2022-08-29T23:27:32.019Z,101745.41
2022-08-29T23:30:00.692Z,101745.53
2022-08-29T23:32:27.801Z,101743.06
2022-08-29T23:34:54.978Z,101743.16
2022-08-29T23:37:21.590Z,101745.16
2022-08-29T23:39:48.201Z,101754.09
2022-08-29T23:42:15.411Z,101750.81
2022-08-29T23:44:42.049Z,101747.50
2022-08-29T23:47:08.720Z,101753.94
2022-08-29T23:49:35.423Z,101748.75
2022-08-29T23:52:02.215Z,101751.66
2022-08-29T23:54:31.289Z,101748.28
2022-08-29T23:56:57.936Z,101740.09
2022-08-29T23:59:43.067Z,101747.34
